sensor_id;sensor_type;location;lat;lon;timestamp;P1;durP1;ratioP1;P2;durP2;ratioP2
71856;SDS011;63344;46.980;28.882;2022-12-07T00:01:41;10.45;;;4.78;;
71856;SDS011;63344;46.980;28.882;2022-12-07T00:04:10;14.25;;;6.07;;
71856;SDS011;63344;46.980;28.882;2022-12-07T00:06:40;18.20;;;8.00;;
71856;SDS011;63344;46.980;28.882;2022-12-07T00:09:13;13.60;;;6.07;;
71856;SDS011;63344;46.980;28.882;2022-12-07T00:11:42;12.93;;;5.50;;
71856;SDS011;63344;46.980;28.882;2022-12-07T00:14:11;8.48;;;3.65;;
71856;SDS011;63344;46.980;28.882;2022-12-07T00:16:41;14.00;;;6.07;;
71856;SDS011;63344;46.980;28.882;2022-12-07T00:19:08;14.60;;;5.55;;
71856;SDS011;63344;46.980;28.882;2022-12-07T00:21:37;17.10;;;7.13;;
71856;SDS011;63344;46.980;28.882;2022-12-07T00:24:04;14.77;;;5.97;;
71856;SDS011;63344;46.980;28.882;2022-12-07T00:26:33;15.70;;;6.55;;
71856;SDS011;63344;46.980;28.882;2022-12-07T00:29:04;9.18;;;5.07;;
71856;SDS011;63344;46.980;28.882;2022-12-07T00:31:50;9.07;;;4.30;;
71856;SDS011;63344;46.980;28.882;2022-12-07T00:34:18;12.40;;;5.00;;
71856;SDS011;63344;46.980;28.882;2022-12-07T00:39:14;8.80;;;5.00;;
71856;SDS011;63344;46.980;28.882;2022-12-07T00:41:41;11.70;;;4.57;;
71856;SDS011;63344;46.980;28.882;2022-12-07T00:44:09;10.30;;;5.22;;
71856;SDS011;63344;46.980;28.882;2022-12-07T00:46:36;15.52;;;4.78;;
71856;SDS011;63344;46.980;28.882;2022-12-07T00:49:03;8.38;;;3.92;;
71856;SDS011;63344;46.980;28.882;2022-12-07T00:51:30;11.95;;;5.88;;
71856;SDS011;63344;46.980;28.882;2022-12-07T00:53:57;14.23;;;7.22;;
71856;SDS011;63344;46.980;28.882;2022-12-07T00:56:26;17.52;;;7.60;;
71856;SDS011;63344;46.980;28.882;2022-12-07T00:59:01;12.38;;;5.38;;
71856;SDS011;63344;46.980;28.882;2022-12-07T01:01:30;10.20;;;4.93;;
71856;SDS011;63344;46.980;28.882;2022-12-07T01:04:02;5.65;;;3.38;;
71856;SDS011;63344;46.980;28.882;2022-12-07T01:06:30;7.72;;;3.17;;
71856;SDS011;63344;46.980;28.882;2022-12-07T01:08:58;7.63;;;3.97;;
71856;SDS011;63344;46.980;28.882;2022-12-07T01:11:27;12.70;;;5.15;;
71856;SDS011;63344;46.980;28.882;2022-12-07T01:16:24;5.35;;;2.72;;
71856;SDS011;63344;46.980;28.882;2022-12-07T01:18:53;8.25;;;4.20;;
71856;SDS011;63344;46.980;28.882;2022-12-07T01:21:22;10.07;;;4.55;;
71856;SDS011;63344;46.980;28.882;2022-12-07T01:23:51;10.10;;;4.80;;
71856;SDS011;63344;46.980;28.882;2022-12-07T01:26:20;12.20;;;5.78;;
71856;SDS011;63344;46.980;28.882;2022-12-07T01:28:49;12.35;;;6.22;;
71856;SDS011;63344;46.980;28.882;2022-12-07T01:31:18;16.83;;;6.95;;
71856;SDS011;63344;46.980;28.882;2022-12-07T01:36:22;13.38;;;5.85;;
71856;SDS011;63344;46.980;28.882;2022-12-07T01:38:52;12.13;;;4.60;;
71856;SDS011;63344;46.980;28.882;2022-12-07T01:41:24;15.90;;;6.85;;
71856;SDS011;63344;46.980;28.882;2022-12-07T01:46:41;13.23;;;5.82;;
71856;SDS011;63344;46.980;28.882;2022-12-07T01:49:18;10.95;;;4.80;;
71856;SDS011;63344;46.980;28.882;2022-12-07T01:51:50;12.68;;;6.15;;
71856;SDS011;63344;46.980;28.882;2022-12-07T01:54:23;12.90;;;6.30;;
71856;SDS011;63344;46.980;28.882;2022-12-07T01:56:53;10.00;;;4.68;;
71856;SDS011;63344;46.980;28.882;2022-12-07T01:59:23;10.50;;;5.13;;
71856;SDS011;63344;46.980;28.882;2022-12-07T02:01:53;9.65;;;4.40;;
71856;SDS011;63344;46.980;28.882;2022-12-07T02:04:21;7.88;;;3.42;;
71856;SDS011;63344;46.980;28.882;2022-12-07T02:06:50;10.88;;;5.28;;
71856;SDS011;63344;46.980;28.882;2022-12-07T02:09:17;11.95;;;4.78;;
71856;SDS011;63344;46.980;28.882;2022-12-07T02:11:45;13.98;;;5.95;;
71856;SDS011;63344;46.980;28.882;2022-12-07T02:14:12;11.48;;;5.07;;
71856;SDS011;63344;46.980;28.882;2022-12-07T02:19:32;6.95;;;3.35;;
71856;SDS011;63344;46.980;28.882;2022-12-07T02:24:57;7.60;;;4.13;;
71856;SDS011;63344;46.980;28.882;2022-12-07T02:27:47;9.15;;;4.30;;
71856;SDS011;63344;46.980;28.882;2022-12-07T02:30:17;10.02;;;4.40;;
71856;SDS011;63344;46.980;28.882;2022-12-07T02:35:32;11.32;;;4.90;;
71856;SDS011;63344;46.980;28.882;2022-12-07T02:38:07;12.27;;;5.10;;
71856;SDS011;63344;46.980;28.882;2022-12-07T02:40:43;12.05;;;4.65;;
71856;SDS011;63344;46.980;28.882;2022-12-07T02:43:38;12.60;;;5.95;;
71856;SDS011;63344;46.980;28.882;2022-12-07T02:46:14;10.35;;;5.00;;
71856;SDS011;63344;46.980;28.882;2022-12-07T02:48:48;10.70;;;5.07;;
71856;SDS011;63344;46.980;28.882;2022-12-07T02:51:18;7.72;;;4.43;;
71856;SDS011;63344;46.980;28.882;2022-12-07T02:53:47;9.60;;;4.95;;
71856;SDS011;63344;46.980;28.882;2022-12-07T03:07:54;9.90;;;4.60;;
71856;SDS011;63344;46.980;28.882;2022-12-07T03:10:32;5.03;;;2.25;;
71856;SDS011;63344;46.980;28.882;2022-12-07T03:19:08;7.60;;;4.00;;
71856;SDS011;63344;46.980;28.882;2022-12-07T03:21:40;8.35;;;4.20;;
71856;SDS011;63344;46.980;28.882;2022-12-07T03:24:14;10.35;;;4.32;;
71856;SDS011;63344;46.980;28.882;2022-12-07T03:26:45;11.20;;;4.63;;
71856;SDS011;63344;46.980;28.882;2022-12-07T03:29:20;22.38;;;5.07;;
71856;SDS011;63344;46.980;28.882;2022-12-07T03:31:59;9.63;;;4.20;;
71856;SDS011;63344;46.980;28.882;2022-12-07T03:34:46;8.25;;;4.07;;
71856;SDS011;63344;46.980;28.882;2022-12-07T03:37:23;4.95;;;2.55;;
71856;SDS011;63344;46.980;28.882;2022-12-07T03:42:29;8.45;;;3.42;;
71856;SDS011;63344;46.980;28.882;2022-12-07T03:44:57;7.13;;;2.92;;
71856;SDS011;63344;46.980;28.882;2022-12-07T03:50:21;4.20;;;2.30;;
71856;SDS011;63344;46.980;28.882;2022-12-07T03:52:59;6.22;;;3.13;;
71856;SDS011;63344;46.980;28.882;2022-12-07T03:55:35;9.85;;;3.53;;
71856;SDS011;63344;46.980;28.882;2022-12-07T03:58:06;8.00;;;3.17;;
71856;SDS011;63344;46.980;28.882;2022-12-07T04:00:37;10.85;;;3.80;;
71856;SDS011;63344;46.980;28.882;2022-12-07T04:03:05;11.73;;;3.38;;
71856;SDS011;63344;46.980;28.882;2022-12-07T04:05:32;7.25;;;3.35;;
71856;SDS011;63344;46.980;28.882;2022-12-07T04:07:59;10.40;;;4.00;;
71856;SDS011;63344;46.980;28.882;2022-12-07T04:10:26;77.30;;;7.95;;
71856;SDS011;63344;46.980;28.882;2022-12-07T04:12:54;18.35;;;5.15;;
71856;SDS011;63344;46.980;28.882;2022-12-07T04:15:21;8.02;;;4.03;;
71856;SDS011;63344;46.980;28.882;2022-12-07T04:17:49;10.93;;;5.07;;
71856;SDS011;63344;46.980;28.882;2022-12-07T04:20:17;11.40;;;5.03;;
71856;SDS011;63344;46.980;28.882;2022-12-07T04:22:44;18.55;;;5.43;;
71856;SDS011;63344;46.980;28.882;2022-12-07T04:25:11;12.35;;;4.55;;
71856;SDS011;63344;46.980;28.882;2022-12-07T04:27:39;13.55;;;5.68;;
71856;SDS011;63344;46.980;28.882;2022-12-07T04:30:06;17.38;;;6.63;;
71856;SDS011;63344;46.980;28.882;2022-12-07T04:32:34;14.38;;;6.47;;
71856;SDS011;63344;46.980;28.882;2022-12-07T04:35:01;14.48;;;6.60;;
71856;SDS011;63344;46.980;28.882;2022-12-07T04:37:30;14.02;;;5.88;;
71856;SDS011;63344;46.980;28.882;2022-12-07T04:39:57;17.73;;;7.47;;
71856;SDS011;63344;46.980;28.882;2022-12-07T04:42:24;15.65;;;6.20;;
71856;SDS011;63344;46.980;28.882;2022-12-07T04:44:52;16.30;;;6.68;;
71856;SDS011;63344;46.980;28.882;2022-12-07T04:47:19;16.27;;;6.13;;
71856;SDS011;63344;46.980;28.882;2022-12-07T04:49:47;11.27;;;5.40;;
71856;SDS011;63344;46.980;28.882;2022-12-07T04:52:14;13.57;;;5.88;;
71856;SDS011;63344;46.980;28.882;2022-12-07T04:54:41;15.75;;;6.22;;
71856;SDS011;63344;46.980;28.882;2022-12-07T04:57:10;12.48;;;6.15;;
71856;SDS011;63344;46.980;28.882;2022-12-07T04:59:37;11.63;;;5.57;;
71856;SDS011;63344;46.980;28.882;2022-12-07T05:02:11;10.43;;;4.88;;
71856;SDS011;63344;46.980;28.882;2022-12-07T05:04:38;10.57;;;5.75;;
71856;SDS011;63344;46.980;28.882;2022-12-07T05:07:06;8.70;;;4.60;;
71856;SDS011;63344;46.980;28.882;2022-12-07T05:09:35;11.77;;;4.97;;
71856;SDS011;63344;46.980;28.882;2022-12-07T05:12:03;11.98;;;5.75;;
71856;SDS011;63344;46.980;28.882;2022-12-07T05:14:31;8.25;;;3.75;;
71856;SDS011;63344;46.980;28.882;2022-12-07T05:17:09;9.32;;;4.60;;
71856;SDS011;63344;46.980;28.882;2022-12-07T05:19:39;8.40;;;3.55;;
71856;SDS011;63344;46.980;28.882;2022-12-07T05:22:09;13.32;;;4.65;;
71856;SDS011;63344;46.980;28.882;2022-12-07T05:24:37;8.65;;;3.92;;
71856;SDS011;63344;46.980;28.882;2022-12-07T05:27:04;6.28;;;3.17;;
71856;SDS011;63344;46.980;28.882;2022-12-07T05:29:34;10.27;;;4.93;;
71856;SDS011;63344;46.980;28.882;2022-12-07T05:32:05;7.47;;;4.70;;
71856;SDS011;63344;46.980;28.882;2022-12-07T05:34:32;8.15;;;3.65;;
71856;SDS011;63344;46.980;28.882;2022-12-07T05:37:00;12.98;;;4.82;;
71856;SDS011;63344;46.980;28.882;2022-12-07T05:39:27;18.52;;;10.10;;
71856;SDS011;63344;46.980;28.882;2022-12-07T05:41:54;10.13;;;5.38;;
71856;SDS011;63344;46.980;28.882;2022-12-07T05:44:43;10.82;;;4.97;;
71856;SDS011;63344;46.980;28.882;2022-12-07T05:47:21;15.80;;;5.85;;
71856;SDS011;63344;46.980;28.882;2022-12-07T05:49:48;8.82;;;4.20;;
71856;SDS011;63344;46.980;28.882;2022-12-07T05:52:16;8.07;;;4.45;;
71856;SDS011;63344;46.980;28.882;2022-12-07T05:54:43;17.38;;;6.18;;
71856;SDS011;63344;46.980;28.882;2022-12-07T05:57:11;13.15;;;5.28;;
71856;SDS011;63344;46.980;28.882;2022-12-07T05:59:38;11.70;;;4.40;;
71856;SDS011;63344;46.980;28.882;2022-12-07T06:02:06;16.83;;;6.97;;
71856;SDS011;63344;46.980;28.882;2022-12-07T06:04:40;13.70;;;5.38;;
71856;SDS011;63344;46.980;28.882;2022-12-07T06:07:09;10.75;;;5.35;;
71856;SDS011;63344;46.980;28.882;2022-12-07T06:09:45;10.93;;;4.72;;
71856;SDS011;63344;46.980;28.882;2022-12-07T06:12:13;10.07;;;4.30;;
71856;SDS011;63344;46.980;28.882;2022-12-07T06:15:02;10.75;;;4.38;;
71856;SDS011;63344;46.980;28.882;2022-12-07T06:17:31;10.88;;;4.38;;
71856;SDS011;63344;46.980;28.882;2022-12-07T06:19:58;11.75;;;5.15;;
71856;SDS011;63344;46.980;28.882;2022-12-07T06:22:26;14.13;;;5.10;;
71856;SDS011;63344;46.980;28.882;2022-12-07T06:24:53;13.02;;;5.53;;
71856;SDS011;63344;46.980;28.882;2022-12-07T06:27:21;10.68;;;5.22;;
71856;SDS011;63344;46.980;28.882;2022-12-07T06:29:48;11.63;;;5.30;;
71856;SDS011;63344;46.980;28.882;2022-12-07T06:32:15;14.05;;;6.65;;
71856;SDS011;63344;46.980;28.882;2022-12-07T06:34:43;21.23;;;8.48;;
71856;SDS011;63344;46.980;28.882;2022-12-07T06:37:10;17.05;;;6.78;;
71856;SDS011;63344;46.980;28.882;2022-12-07T06:39:37;25.00;;;9.30;;
71856;SDS011;63344;46.980;28.882;2022-12-07T06:42:05;18.05;;;9.23;;
71856;SDS011;63344;46.980;28.882;2022-12-07T06:44:32;20.92;;;9.23;;
71856;SDS011;63344;46.980;28.882;2022-12-07T06:47:00;14.93;;;6.43;;
71856;SDS011;63344;46.980;28.882;2022-12-07T06:49:47;17.45;;;6.63;;
71856;SDS011;63344;46.980;28.882;2022-12-07T06:52:15;17.80;;;7.38;;
71856;SDS011;63344;46.980;28.882;2022-12-07T06:54:42;12.25;;;5.32;;
71856;SDS011;63344;46.980;28.882;2022-12-07T06:57:09;19.70;;;8.38;;
71856;SDS011;63344;46.980;28.882;2022-12-07T06:59:36;17.45;;;6.57;;
71856;SDS011;63344;46.980;28.882;2022-12-07T07:02:03;15.77;;;6.80;;
71856;SDS011;63344;46.980;28.882;2022-12-07T07:04:32;25.08;;;9.20;;
71856;SDS011;63344;46.980;28.882;2022-12-07T07:07:00;35.45;;;12.35;;
71856;SDS011;63344;46.980;28.882;2022-12-07T07:09:28;25.52;;;9.82;;
71856;SDS011;63344;46.980;28.882;2022-12-07T07:11:56;30.70;;;10.75;;
71856;SDS011;63344;46.980;28.882;2022-12-07T07:14:24;26.23;;;10.30;;
71856;SDS011;63344;46.980;28.882;2022-12-07T07:16:51;29.08;;;11.48;;
71856;SDS011;63344;46.980;28.882;2022-12-07T07:19:19;25.98;;;10.27;;
71856;SDS011;63344;46.980;28.882;2022-12-07T07:21:46;30.58;;;12.80;;
71856;SDS011;63344;46.980;28.882;2022-12-07T07:24:13;25.95;;;12.02;;
71856;SDS011;63344;46.980;28.882;2022-12-07T07:26:41;26.23;;;10.05;;
71856;SDS011;63344;46.980;28.882;2022-12-07T07:29:10;24.65;;;9.43;;
71856;SDS011;63344;46.980;28.882;2022-12-07T07:31:45;26.20;;;9.63;;
71856;SDS011;63344;46.980;28.882;2022-12-07T07:34:12;29.65;;;9.85;;
71856;SDS011;63344;46.980;28.882;2022-12-07T07:36:41;26.40;;;10.95;;
71856;SDS011;63344;46.980;28.882;2022-12-07T07:39:09;26.95;;;11.43;;
71856;SDS011;63344;46.980;28.882;2022-12-07T07:41:37;26.92;;;10.13;;
71856;SDS011;63344;46.980;28.882;2022-12-07T07:44:04;36.50;;;12.75;;
71856;SDS011;63344;46.980;28.882;2022-12-07T07:46:32;32.22;;;11.88;;
71856;SDS011;63344;46.980;28.882;2022-12-07T07:49:00;34.78;;;13.15;;
71856;SDS011;63344;46.980;28.882;2022-12-07T07:51:29;39.25;;;12.43;;
71856;SDS011;63344;46.980;28.882;2022-12-07T07:53:57;31.83;;;10.57;;
71856;SDS011;63344;46.980;28.882;2022-12-07T07:56:24;41.05;;;12.90;;
71856;SDS011;63344;46.980;28.882;2022-12-07T07:58:52;41.85;;;9.90;;
71856;SDS011;63344;46.980;28.882;2022-12-07T08:01:33;43.50;;;11.05;;
71856;SDS011;63344;46.980;28.882;2022-12-07T08:04:15;31.55;;;11.68;;
71856;SDS011;63344;46.980;28.882;2022-12-07T08:06:45;34.40;;;10.75;;
71856;SDS011;63344;46.980;28.882;2022-12-07T08:09:14;41.00;;;12.50;;
71856;SDS011;63344;46.980;28.882;2022-12-07T08:11:44;33.45;;;13.13;;
71856;SDS011;63344;46.980;28.882;2022-12-07T08:14:12;41.38;;;13.75;;
71856;SDS011;63344;46.980;28.882;2022-12-07T08:16:40;32.50;;;13.10;;
71856;SDS011;63344;46.980;28.882;2022-12-07T08:19:08;34.55;;;13.82;;
71856;SDS011;63344;46.980;28.882;2022-12-07T08:21:37;46.85;;;13.65;;
71856;SDS011;63344;46.980;28.882;2022-12-07T08:24:04;42.28;;;16.05;;
71856;SDS011;63344;46.980;28.882;2022-12-07T08:26:32;40.22;;;12.02;;
71856;SDS011;63344;46.980;28.882;2022-12-07T08:29:00;47.35;;;18.50;;
71856;SDS011;63344;46.980;28.882;2022-12-07T08:31:30;55.70;;;18.75;;
71856;SDS011;63344;46.980;28.882;2022-12-07T08:33:59;55.50;;;19.35;;
71856;SDS011;63344;46.980;28.882;2022-12-07T08:36:27;58.92;;;22.45;;
71856;SDS011;63344;46.980;28.882;2022-12-07T08:38:54;55.05;;;20.08;;
71856;SDS011;63344;46.980;28.882;2022-12-07T08:41:41;50.00;;;19.15;;
71856;SDS011;63344;46.980;28.882;2022-12-07T08:44:08;66.07;;;26.60;;
71856;SDS011;63344;46.980;28.882;2022-12-07T08:46:40;77.97;;;28.08;;
71856;SDS011;63344;46.980;28.882;2022-12-07T08:49:19;57.88;;;21.75;;
71856;SDS011;63344;46.980;28.882;2022-12-07T08:51:51;60.60;;;19.90;;
71856;SDS011;63344;46.980;28.882;2022-12-07T08:54:20;49.75;;;18.50;;
71856;SDS011;63344;46.980;28.882;2022-12-07T08:56:49;53.72;;;19.27;;
71856;SDS011;63344;46.980;28.882;2022-12-07T08:59:26;47.60;;;16.52;;
71856;SDS011;63344;46.980;28.882;2022-12-07T09:01:59;57.45;;;20.15;;
71856;SDS011;63344;46.980;28.882;2022-12-07T09:04:30;53.63;;;20.08;;
71856;SDS011;63344;46.980;28.882;2022-12-07T09:09:41;40.42;;;15.52;;
71856;SDS011;63344;46.980;28.882;2022-12-07T09:12:09;44.95;;;17.60;;
71856;SDS011;63344;46.980;28.882;2022-12-07T09:14:37;46.28;;;16.80;;
71856;SDS011;63344;46.980;28.882;2022-12-07T09:17:08;42.47;;;18.02;;
71856;SDS011;63344;46.980;28.882;2022-12-07T09:19:37;52.90;;;18.70;;
71856;SDS011;63344;46.980;28.882;2022-12-07T09:22:04;43.03;;;16.77;;
71856;SDS011;63344;46.980;28.882;2022-12-07T09:24:32;52.85;;;19.13;;
71856;SDS011;63344;46.980;28.882;2022-12-07T09:27:00;56.25;;;21.58;;
71856;SDS011;63344;46.980;28.882;2022-12-07T09:29:27;56.22;;;22.20;;
71856;SDS011;63344;46.980;28.882;2022-12-07T09:31:54;74.40;;;27.30;;
71856;SDS011;63344;46.980;28.882;2022-12-07T09:34:22;65.40;;;27.13;;
71856;SDS011;63344;46.980;28.882;2022-12-07T09:36:50;67.45;;;26.23;;
71856;SDS011;63344;46.980;28.882;2022-12-07T09:39:17;74.90;;;29.58;;
71856;SDS011;63344;46.980;28.882;2022-12-07T09:41:46;73.65;;;25.70;;
71856;SDS011;63344;46.980;28.882;2022-12-07T09:44:14;70.82;;;28.70;;
71856;SDS011;63344;46.980;28.882;2022-12-07T09:46:49;48.13;;;19.23;;
71856;SDS011;63344;46.980;28.882;2022-12-07T09:49:21;56.17;;;21.83;;
71856;SDS011;63344;46.980;28.882;2022-12-07T09:54:40;53.33;;;21.48;;
71856;SDS011;63344;46.980;28.882;2022-12-07T09:57:10;45.55;;;17.50;;
71856;SDS011;63344;46.980;28.882;2022-12-07T10:00:28;52.42;;;21.42;;
71856;SDS011;63344;46.980;28.882;2022-12-07T10:03:09;44.63;;;19.05;;
71856;SDS011;63344;46.980;28.882;2022-12-07T10:05:42;58.92;;;22.73;;
71856;SDS011;63344;46.980;28.882;2022-12-07T10:08:12;56.95;;;20.80;;
71856;SDS011;63344;46.980;28.882;2022-12-07T10:10:43;52.95;;;20.35;;
71856;SDS011;63344;46.980;28.882;2022-12-07T10:13:12;47.45;;;21.60;;
71856;SDS011;63344;46.980;28.882;2022-12-07T10:15:51;51.70;;;22.05;;
71856;SDS011;63344;46.980;28.882;2022-12-07T10:18:39;52.88;;;22.73;;
71856;SDS011;63344;46.980;28.882;2022-12-07T10:23:36;53.72;;;21.65;;
71856;SDS011;63344;46.980;28.882;2022-12-07T10:26:26;56.70;;;23.05;;
71856;SDS011;63344;46.980;28.882;2022-12-07T10:31:57;54.20;;;22.33;;
71856;SDS011;63344;46.980;28.882;2022-12-07T10:34:28;50.78;;;20.42;;
71856;SDS011;63344;46.980;28.882;2022-12-07T10:39:48;59.35;;;23.88;;
71856;SDS011;63344;46.980;28.882;2022-12-07T10:42:25;54.00;;;23.38;;
71856;SDS011;63344;46.980;28.882;2022-12-07T10:47:47;31.83;;;13.18;;
71856;SDS011;63344;46.980;28.882;2022-12-07T10:53:44;37.90;;;17.60;;
71856;SDS011;63344;46.980;28.882;2022-12-07T10:59:28;68.03;;;26.65;;
71856;SDS011;63344;46.980;28.882;2022-12-07T11:05:11;137.50;;;55.75;;
71856;SDS011;63344;46.980;28.882;2022-12-07T11:25:18;130.70;;;53.90;;
71856;SDS011;63344;46.980;28.882;2022-12-07T11:28:02;130.32;;;54.88;;
71856;SDS011;63344;46.980;28.882;2022-12-07T11:31:13;126.93;;;52.88;;
71856;SDS011;63344;46.980;28.882;2022-12-07T11:36:54;96.03;;;42.90;;
71856;SDS011;63344;46.980;28.882;2022-12-07T11:42:01;108.63;;;52.20;;
71856;SDS011;63344;46.980;28.882;2022-12-07T11:47:35;131.02;;;58.88;;
71856;SDS011;63344;46.980;28.882;2022-12-07T12:01:00;44.97;;;18.30;;
71856;SDS011;63344;46.980;28.882;2022-12-07T12:06:40;54.72;;;27.08;;
71856;SDS011;63344;46.980;28.882;2022-12-07T12:09:26;55.97;;;27.63;;
71856;SDS011;63344;46.980;28.882;2022-12-07T12:12:50;44.13;;;20.67;;
71856;SDS011;63344;46.980;28.882;2022-12-07T12:21:30;35.25;;;14.90;;
71856;SDS011;63344;46.980;28.882;2022-12-07T12:24:12;38.80;;;18.23;;
71856;SDS011;63344;46.980;28.882;2022-12-07T12:26:50;38.08;;;18.52;;
71856;SDS011;63344;46.980;28.882;2022-12-07T12:29:28;61.67;;;26.27;;
71856;SDS011;63344;46.980;28.882;2022-12-07T12:32:10;64.88;;;27.42;;
71856;SDS011;63344;46.980;28.882;2022-12-07T12:34:57;58.80;;;27.42;;
71856;SDS011;63344;46.980;28.882;2022-12-07T12:42:46;39.08;;;17.38;;
71856;SDS011;63344;46.980;28.882;2022-12-07T12:45:23;41.63;;;17.90;;
71856;SDS011;63344;46.980;28.882;2022-12-07T12:47:57;32.35;;;14.45;;
71856;SDS011;63344;46.980;28.882;2022-12-07T13:00:46;39.95;;;16.42;;
71856;SDS011;63344;46.980;28.882;2022-12-07T13:03:36;35.47;;;15.10;;
71856;SDS011;63344;46.980;28.882;2022-12-07T13:08:46;40.17;;;16.88;;
71856;SDS011;63344;46.980;28.882;2022-12-07T13:11:17;41.70;;;18.20;;
71856;SDS011;63344;46.980;28.882;2022-12-07T13:14:35;43.15;;;18.88;;
71856;SDS011;63344;46.980;28.882;2022-12-07T13:17:00;33.28;;;14.60;;
71856;SDS011;63344;46.980;28.882;2022-12-07T13:27:40;28.10;;;12.80;;
71856;SDS011;63344;46.980;28.882;2022-12-07T13:30:14;31.00;;;13.55;;
71856;SDS011;63344;46.980;28.882;2022-12-07T13:32:43;34.42;;;14.55;;
71856;SDS011;63344;46.980;28.882;2022-12-07T13:35:29;33.03;;;15.73;;
71856;SDS011;63344;46.980;28.882;2022-12-07T13:37:56;35.67;;;14.80;;
71856;SDS011;63344;46.980;28.882;2022-12-07T13:40:24;37.25;;;16.23;;
71856;SDS011;63344;46.980;28.882;2022-12-07T13:42:58;47.20;;;17.88;;
71856;SDS011;63344;46.980;28.882;2022-12-07T13:45:31;37.75;;;16.27;;
71856;SDS011;63344;46.980;28.882;2022-12-07T13:48:33;38.20;;;17.40;;
71856;SDS011;63344;46.980;28.882;2022-12-07T13:51:33;37.13;;;16.15;;
71856;SDS011;63344;46.980;28.882;2022-12-07T13:54:08;40.40;;;16.92;;
71856;SDS011;63344;46.980;28.882;2022-12-07T13:59:19;34.28;;;14.32;;
71856;SDS011;63344;46.980;28.882;2022-12-07T14:01:50;34.97;;;14.85;;
71856;SDS011;63344;46.980;28.882;2022-12-07T14:06:50;38.25;;;14.80;;
71856;SDS011;63344;46.980;28.882;2022-12-07T14:09:19;36.22;;;14.57;;
71856;SDS011;63344;46.980;28.882;2022-12-07T14:11:50;38.75;;;17.27;;
71856;SDS011;63344;46.980;28.882;2022-12-07T14:14:23;35.17;;;14.52;;
71856;SDS011;63344;46.980;28.882;2022-12-07T14:17:28;40.05;;;15.40;;
71856;SDS011;63344;46.980;28.882;2022-12-07T14:19:56;35.05;;;15.35;;
71856;SDS011;63344;46.980;28.882;2022-12-07T14:22:34;38.88;;;17.02;;
71856;SDS011;63344;46.980;28.882;2022-12-07T14:28:00;55.00;;;26.15;;
71856;SDS011;63344;46.980;28.882;2022-12-07T14:30:32;61.42;;;27.20;;
71856;SDS011;63344;46.980;28.882;2022-12-07T14:33:02;58.92;;;24.77;;
71856;SDS011;63344;46.980;28.882;2022-12-07T14:35:31;67.93;;;28.38;;
71856;SDS011;63344;46.980;28.882;2022-12-07T14:37:59;85.75;;;39.60;;
71856;SDS011;63344;46.980;28.882;2022-12-07T14:40:27;174.48;;;78.85;;
71856;SDS011;63344;46.980;28.882;2022-12-07T14:42:58;74.10;;;30.98;;
71856;SDS011;63344;46.980;28.882;2022-12-07T14:45:29;80.13;;;32.83;;
71856;SDS011;63344;46.980;28.882;2022-12-07T14:47:58;66.43;;;30.92;;
71856;SDS011;63344;46.980;28.882;2022-12-07T14:50:45;64.72;;;26.73;;
71856;SDS011;63344;46.980;28.882;2022-12-07T14:53:39;62.75;;;26.40;;
71856;SDS011;63344;46.980;28.882;2022-12-07T14:56:09;55.65;;;23.73;;
71856;SDS011;63344;46.980;28.882;2022-12-07T14:58:37;55.78;;;24.17;;
71856;SDS011;63344;46.980;28.882;2022-12-07T15:01:04;54.67;;;25.40;;
71856;SDS011;63344;46.980;28.882;2022-12-07T15:03:32;60.42;;;28.60;;
71856;SDS011;63344;46.980;28.882;2022-12-07T15:06:01;56.47;;;25.15;;
71856;SDS011;63344;46.980;28.882;2022-12-07T15:08:31;53.40;;;21.50;;
71856;SDS011;63344;46.980;28.882;2022-12-07T15:10:58;52.53;;;22.90;;
71856;SDS011;63344;46.980;28.882;2022-12-07T15:13:26;54.75;;;21.80;;
71856;SDS011;63344;46.980;28.882;2022-12-07T15:16:13;46.38;;;20.27;;
71856;SDS011;63344;46.980;28.882;2022-12-07T15:18:45;39.05;;;17.42;;
71856;SDS011;63344;46.980;28.882;2022-12-07T15:21:32;43.90;;;18.90;;
71856;SDS011;63344;46.980;28.882;2022-12-07T15:24:00;41.28;;;18.48;;
71856;SDS011;63344;46.980;28.882;2022-12-07T15:26:27;41.42;;;17.65;;
71856;SDS011;63344;46.980;28.882;2022-12-07T15:28:55;52.78;;;23.52;;
71856;SDS011;63344;46.980;28.882;2022-12-07T15:31:22;59.53;;;26.48;;
71856;SDS011;63344;46.980;28.882;2022-12-07T15:34:10;55.03;;;24.60;;
71856;SDS011;63344;46.980;28.882;2022-12-07T15:36:37;60.30;;;26.70;;
71856;SDS011;63344;46.980;28.882;2022-12-07T15:39:05;61.08;;;25.27;;
71856;SDS011;63344;46.980;28.882;2022-12-07T15:41:45;57.75;;;25.90;;
71856;SDS011;63344;46.980;28.882;2022-12-07T15:44:13;59.97;;;26.70;;
71856;SDS011;63344;46.980;28.882;2022-12-07T15:46:59;59.85;;;27.95;;
71856;SDS011;63344;46.980;28.882;2022-12-07T15:49:31;64.78;;;28.10;;
71856;SDS011;63344;46.980;28.882;2022-12-07T15:52:16;65.18;;;29.27;;
71856;SDS011;63344;46.980;28.882;2022-12-07T15:54:49;73.43;;;29.83;;
71856;SDS011;63344;46.980;28.882;2022-12-07T15:57:17;64.97;;;30.35;;
71856;SDS011;63344;46.980;28.882;2022-12-07T15:59:51;47.05;;;22.73;;
71856;SDS011;63344;46.980;28.882;2022-12-07T16:02:19;60.75;;;25.40;;
71856;SDS011;63344;46.980;28.882;2022-12-07T16:04:46;60.83;;;26.83;;
71856;SDS011;63344;46.980;28.882;2022-12-07T16:07:13;55.58;;;25.52;;
71856;SDS011;63344;46.980;28.882;2022-12-07T16:09:48;59.80;;;26.08;;
71856;SDS011;63344;46.980;28.882;2022-12-07T16:12:18;59.60;;;24.90;;
71856;SDS011;63344;46.980;28.882;2022-12-07T16:14:46;60.55;;;27.98;;
71856;SDS011;63344;46.980;28.882;2022-12-07T16:17:13;71.57;;;32.63;;
71856;SDS011;63344;46.980;28.882;2022-12-07T16:19:41;73.95;;;33.97;;
71856;SDS011;63344;46.980;28.882;2022-12-07T16:22:08;68.70;;;30.20;;
71856;SDS011;63344;46.980;28.882;2022-12-07T16:24:36;74.22;;;31.88;;
71856;SDS011;63344;46.980;28.882;2022-12-07T16:27:03;75.60;;;32.10;;
71856;SDS011;63344;46.980;28.882;2022-12-07T16:29:30;80.30;;;36.38;;
71856;SDS011;63344;46.980;28.882;2022-12-07T16:31:57;67.30;;;29.10;;
71856;SDS011;63344;46.980;28.882;2022-12-07T16:34:25;54.58;;;23.38;;
71856;SDS011;63344;46.980;28.882;2022-12-07T16:36:52;54.20;;;24.02;;
71856;SDS011;63344;46.980;28.882;2022-12-07T16:39:30;53.95;;;23.33;;
71856;SDS011;63344;46.980;28.882;2022-12-07T16:41:58;46.67;;;21.15;;
71856;SDS011;63344;46.980;28.882;2022-12-07T16:44:26;51.22;;;22.75;;
71856;SDS011;63344;46.980;28.882;2022-12-07T16:46:53;54.38;;;23.20;;
71856;SDS011;63344;46.980;28.882;2022-12-07T16:49:21;57.03;;;26.75;;
71856;SDS011;63344;46.980;28.882;2022-12-07T16:51:51;50.42;;;23.67;;
71856;SDS011;63344;46.980;28.882;2022-12-07T16:54:38;56.50;;;25.88;;
71856;SDS011;63344;46.980;28.882;2022-12-07T16:57:07;56.20;;;24.33;;
71856;SDS011;63344;46.980;28.882;2022-12-07T16:59:50;56.80;;;25.92;;
71856;SDS011;63344;46.980;28.882;2022-12-07T17:02:24;55.63;;;24.70;;
71856;SDS011;63344;46.980;28.882;2022-12-07T17:07:41;54.30;;;25.42;;
71856;SDS011;63344;46.980;28.882;2022-12-07T17:10:09;46.97;;;20.88;;
71856;SDS011;63344;46.980;28.882;2022-12-07T17:12:37;47.47;;;19.95;;
71856;SDS011;63344;46.980;28.882;2022-12-07T17:20:15;45.00;;;20.75;;